METAR Formatted Surface Weather Observation
Issued by NWS

Home | Current Version | Previous Version | Text Only | Print | Product List | Glossary On
Versions: 1 2 3 4 5 6 7 8 9 10 11 12 13 14 15 16 17 18 19 20 21
000
SAUS41 KLWX 210753
MTRNHK
METAR KNHK 210752Z AUTO 20007KT 10SM CLR 07/M01 A3019 RMK AO2 SLP222
T00671011



USA.gov is the U.S. government's official web portal to all federal, state and local government web resources and services.